Time;durP1;ratioP1;P1;durP2;ratioP2;P2;SDS_P1;SDS_P2;PMS_P1;PMS_P2;Temp;Humidity;BMP_temperature;BMP_pressure;BME280_temperature;BME280_humidity;BME280_pressure;Samples;Min_cycle;Max_cycle;Signal;HPM_P1;HPM_P2
2023/01/20 00:01:34;;;;;;;61.25;29.13;;;;;;;;;;5094948;28;20561;-67
2023/01/20 00:04:01;;;;;;;52.80;29.90;;;;;;;;;;5094784;28;20209;-67
2023/01/20 00:06:30;;;;;;;50.47;26.45;;;;;;;;;;5094783;28;20271;-67
2023/01/20 00:08:58;;;;;;;60.15;28.13;;;;;;;;;;5094376;28;20731;-67
2023/01/20 00:11:25;;;;;;;50.75;27.95;;;;;;;;;;5095042;28;20250;-67
2023/01/20 00:13:54;;;;;;;54.40;29.20;;;;;;;;;;5094763;28;20180;-67
2023/01/20 00:16:22;;;;;;;62.78;29.17;;;;;;;;;;5094589;28;20207;-65
2023/01/20 00:18:49;;;;;;;48.25;27.77;;;;;;;;;;5094653;28;20222;-67
2023/01/20 00:21:16;;;;;;;62.95;31.45;;;;;;;;;;5094513;28;20199;-65
2023/01/20 00:23:45;;;;;;;59.55;29.40;;;;;;;;;;5094220;28;20203;-66
2023/01/20 00:26:14;;;;;;;54.25;28.77;;;;;;;;;;5093946;28;20276;-65
2023/01/20 00:28:42;;;;;;;50.22;27.83;;;;;;;;;;5094315;28;20203;-65
2023/01/20 00:31:13;;;;;;;63.13;29.48;;;;;;;;;;5093890;28;20196;-65
2023/01/20 00:33:40;;;;;;;59.03;29.10;;;;;;;;;;5094030;28;20647;-65
2023/01/20 00:36:07;;;;;;;59.55;28.98;;;;;;;;;;5093844;28;20210;-65
2023/01/20 00:38:35;;;;;;;58.05;28.25;;;;;;;;;;5094168;28;20205;-65
2023/01/20 00:41:04;;;;;;;55.90;28.63;;;;;;;;;;5094011;28;20197;-65
2023/01/20 00:43:31;;;;;;;56.20;29.08;;;;;;;;;;5094062;28;20251;-65
2023/01/20 00:45:58;;;;;;;57.20;28.50;;;;;;;;;;5093379;28;20571;-65
2023/01/20 00:48:25;;;;;;;57.33;28.13;;;;;;;;;;5093667;28;20203;-65
2023/01/20 00:50:52;;;;;;;57.65;32.40;;;;;;;;;;5093545;28;20205;-65
2023/01/20 00:53:20;;;;;;;53.38;26.10;;;;;;;;;;5094226;28;20198;-65
2023/01/20 00:55:47;;;;;;;65.47;28.90;;;;;;;;;;5093885;28;20202;-65
2023/01/20 00:58:15;;;;;;;49.30;27.02;;;;;;;;;;5093581;28;20194;-65
2023/01/20 01:00:43;;;;;;;61.78;30.05;;;;;;;;;;5093770;28;20214;-65
2023/01/20 01:03:10;;;;;;;53.53;28.60;;;;;;;;;;5093652;28;20533;-65
2023/01/20 01:05:37;;;;;;;57.28;29.02;;;;;;;;;;5093625;28;20227;-66
2023/01/20 01:08:04;;;;;;;51.30;27.83;;;;;;;;;;5093786;28;20190;-66
2023/01/20 01:10:32;;;;;;;56.17;29.77;;;;;;;;;;5093389;28;20196;-65
2023/01/20 01:13:00;;;;;;;48.97;27.23;;;;;;;;;;5093272;28;20228;-65
2023/01/20 01:15:28;;;;;;;50.50;27.40;;;;;;;;;;5093674;28;20270;-65
2023/01/20 01:17:56;;;;;;;57.92;28.75;;;;;;;;;;5093851;28;20525;-65
2023/01/20 01:20:23;;;;;;;57.03;26.88;;;;;;;;;;5093213;28;20194;-65
2023/01/20 01:22:50;;;;;;;51.70;26.10;;;;;;;;;;5093320;28;20380;-65
2023/01/20 01:25:18;;;;;;;42.83;24.92;;;;;;;;;;5093178;28;20195;-65
2023/01/20 01:27:45;;;;;;;51.97;26.98;;;;;;;;;;5093455;28;20569;-65
2023/01/20 01:30:13;;;;;;;50.92;25.63;;;;;;;;;;5093279;28;20193;-65
2023/01/20 01:32:41;;;;;;;45.38;26.00;;;;;;;;;;5093176;28;20196;-65
2023/01/20 01:35:09;;;;;;;60.15;26.77;;;;;;;;;;5093532;28;20196;-66
2023/01/20 01:37:36;;;;;;;55.05;29.08;;;;;;;;;;5094192;28;20208;-66
2023/01/20 01:40:03;;;;;;;51.80;27.63;;;;;;;;;;5093015;28;20194;-66
2023/01/20 01:42:31;;;;;;;46.75;25.80;;;;;;;;;;5093023;28;20194;-66
2023/01/20 01:45:25;;;;;;;50.17;27.40;;;;;;;;;;5093371;28;20264;-65
2023/01/20 01:47:56;;;;;;;49.35;25.48;;;;;;;;;;5057170;28;20223;-66
2023/01/20 01:50:25;;;;;;;52.53;25.95;;;;;;;;;;5092969;28;20582;-66
2023/01/20 01:52:54;;;;;;;52.08;25.45;;;;;;;;;;5093341;28;20196;-66
2023/01/20 01:55:23;;;;;;;52.05;30.48;;;;;;;;;;5092947;28;20660;-66
2023/01/20 01:57:50;;;;;;;62.67;29.67;;;;;;;;;;5095862;28;20209;-66
2023/01/20 02:00:18;;;;;;;56.80;27.70;;;;;;;;;;5097849;28;20191;-66
2023/01/20 02:02:46;;;;;;;50.95;27.95;;;;;;;;;;5097198;28;20200;-66
2023/01/20 02:05:15;;;;;;;61.38;28.30;;;;;;;;;;5097231;28;20201;-66
2023/01/20 02:07:44;;;;;;;58.03;27.90;;;;;;;;;;5096682;28;20217;-66
2023/01/20 02:10:12;;;;;;;58.63;27.95;;;;;;;;;;5096746;28;20765;-65
2023/01/20 02:12:39;;;;;;;64.60;28.90;;;;;;;;;;5097217;28;20244;-65
2023/01/20 02:15:07;;;;;;;56.50;28.08;;;;;;;;;;5096724;28;20193;-65
2023/01/20 02:17:36;;;;;;;54.90;29.52;;;;;;;;;;5096581;28;20774;-65
2023/01/20 02:20:10;;;;;;;64.28;30.73;;;;;;;;;;5096962;28;20191;-65
2023/01/20 02:22:43;;;;;;;59.78;28.13;;;;;;;;;;5096568;28;20258;-65
2023/01/20 02:25:29;;;;;;;59.22;29.85;;;;;;;;;;5097444;28;20273;-66
2023/01/20 02:28:17;;;;;;;55.17;29.73;;;;;;;;;;5096681;28;20218;-67
2023/01/20 02:31:03;;;;;;;59.20;29.40;;;;;;;;;;5091963;28;20247;-65
2023/01/20 02:33:33;;;;;;;52.63;29.50;;;;;;;;;;5096377;28;20202;-65
2023/01/20 02:36:03;;;;;;;52.33;28.15;;;;;;;;;;5096268;28;20195;-65
2023/01/20 02:38:32;;;;;;;62.47;33.20;;;;;;;;;;5096615;28;20195;-66
2023/01/20 02:41:04;;;;;;;52.50;28.00;;;;;;;;;;5096666;28;20282;-65
2023/01/20 02:43:33;;;;;;;60.83;29.08;;;;;;;;;;5096732;28;20184;-65
2023/01/20 02:46:04;;;;;;;58.05;26.67;;;;;;;;;;5096250;28;20199;-65
2023/01/20 02:48:35;;;;;;;53.42;26.38;;;;;;;;;;5096550;28;20187;-65
2023/01/20 02:51:06;;;;;;;52.42;28.17;;;;;;;;;;5096430;28;20195;-65
2023/01/20 02:53:37;;;;;;;49.08;27.40;;;;;;;;;;5096345;28;20307;-65
2023/01/20 02:56:05;;;;;;;57.88;27.75;;;;;;;;;;5095901;28;20182;-65
2023/01/20 02:58:36;;;;;;;58.33;28.48;;;;;;;;;;5095898;28;20208;-65
2023/01/20 03:01:06;;;;;;;64.90;30.95;;;;;;;;;;5095909;28;20635;-65
2023/01/20 03:03:35;;;;;;;60.40;29.95;;;;;;;;;;5096031;28;20206;-65
2023/01/20 03:06:04;;;;;;;61.97;30.98;;;;;;;;;;5096109;28;20560;-65
2023/01/20 03:08:32;;;;;;;58.70;30.80;;;;;;;;;;5095144;28;20194;-65
2023/01/20 03:11:03;;;;;;;64.60;29.40;;;;;;;;;;5095740;28;20192;-65
2023/01/20 03:13:31;;;;;;;58.47;27.95;;;;;;;;;;5095914;28;20182;-64
2023/01/20 03:16:00;;;;;;;52.80;27.25;;;;;;;;;;5096036;28;20197;-64
2023/01/20 03:18:29;;;;;;;49.40;25.40;;;;;;;;;;5096023;28;20203;-64
2023/01/20 03:20:58;;;;;;;58.97;27.77;;;;;;;;;;5095488;28;20202;-66
2023/01/20 03:23:26;;;;;;;54.78;29.27;;;;;;;;;;5095328;28;20278;-65
2023/01/20 03:25:53;;;;;;;46.10;24.60;;;;;;;;;;5096038;28;20202;-66
2023/01/20 03:28:20;;;;;;;52.45;25.90;;;;;;;;;;5095455;28;20215;-65
2023/01/20 03:30:47;;;;;;;41.40;25.65;;;;;;;;;;5095617;28;20194;-65
2023/01/20 03:33:15;;;;;;;52.53;27.48;;;;;;;;;;5095177;28;20207;-65
2023/01/20 03:35:43;;;;;;;45.97;24.05;;;;;;;;;;5095616;28;20554;-65
2023/01/20 03:38:11;;;;;;;58.03;29.40;;;;;;;;;;5095384;28;20198;-66
2023/01/20 03:40:41;;;;;;;51.40;28.02;;;;;;;;;;5095216;28;20194;-65
2023/01/20 03:43:12;;;;;;;54.40;27.73;;;;;;;;;;5095220;28;20207;-65
2023/01/20 03:45:42;;;;;;;54.60;27.02;;;;;;;;;;5095731;28;20247;-65
2023/01/20 03:48:13;;;;;;;52.45;25.80;;;;;;;;;;5095320;28;20220;-65
2023/01/20 03:50:43;;;;;;;53.97;26.00;;;;;;;;;;5095264;28;20188;-65
2023/01/20 03:53:17;;;;;;;48.33;25.33;;;;;;;;;;5094749;28;20196;-65
2023/01/20 03:55:47;;;;;;;44.20;25.23;;;;;;;;;;5076310;28;20185;-65
2023/01/20 03:58:15;;;;;;;56.47;24.52;;;;;;;;;;5074926;28;20302;-65
2023/01/20 04:00:44;;;;;;;57.22;27.83;;;;;;;;;;5074494;28;20658;-65
2023/01/20 04:03:13;;;;;;;50.25;24.75;;;;;;;;;;5074278;28;20195;-65
2023/01/20 04:05:40;;;;;;;48.80;24.45;;;;;;;;;;5074718;28;20201;-65
2023/01/20 04:08:09;;;;;;;49.33;25.08;;;;;;;;;;5074517;28;20224;-65
2023/01/20 04:10:40;;;;;;;42.35;22.90;;;;;;;;;;5074433;28;20199;-66
2023/01/20 04:13:08;;;;;;;45.38;21.95;;;;;;;;;;5074374;28;20679;-65
2023/01/20 04:15:37;;;;;;;42.17;22.42;;;;;;;;;;5074153;28;20207;-65
2023/01/20 04:18:11;;;;;;;44.38;23.52;;;;;;;;;;5074689;28;20196;-66
2023/01/20 04:20:38;;;;;;;38.65;21.45;;;;;;;;;;5074368;28;20192;-65
2023/01/20 04:23:06;;;;;;;42.42;24.83;;;;;;;;;;5073979;28;20194;-65
2023/01/20 04:25:34;;;;;;;46.63;22.50;;;;;;;;;;5074311;28;20205;-65
2023/01/20 04:28:02;;;;;;;43.83;21.90;;;;;;;;;;5074088;28;20218;-66
2023/01/20 04:30:29;;;;;;;40.50;21.80;;;;;;;;;;5074318;28;20197;-65
2023/01/20 04:32:56;;;;;;;43.45;23.85;;;;;;;;;;5074150;28;20201;-65
2023/01/20 04:35:24;;;;;;;45.20;24.48;;;;;;;;;;5074150;28;20203;-65
2023/01/20 04:37:51;;;;;;;46.60;24.45;;;;;;;;;;5073643;28;20237;-65
2023/01/20 04:40:18;;;;;;;42.30;22.27;;;;;;;;;;5073641;28;20200;-65
2023/01/20 04:42:45;;;;;;;45.20;24.65;;;;;;;;;;5073860;28;20200;-65
2023/01/20 04:45:17;;;;;;;44.10;21.80;;;;;;;;;;5074185;28;20202;-65
2023/01/20 04:47:44;;;;;;;43.83;24.15;;;;;;;;;;5074468;28;20213;-65
2023/01/20 04:50:12;;;;;;;42.67;24.48;;;;;;;;;;5074461;28;20225;-65
2023/01/20 04:52:39;;;;;;;41.65;21.70;;;;;;;;;;5073663;28;20200;-65
2023/01/20 04:55:07;;;;;;;39.90;20.75;;;;;;;;;;5072496;28;20195;-65
2023/01/20 04:57:34;;;;;;;32.63;19.10;;;;;;;;;;5072713;28;20208;-65
2023/01/20 05:00:02;;;;;;;40.97;20.10;;;;;;;;;;5072780;28;20200;-64
2023/01/20 05:02:30;;;;;;;41.35;20.38;;;;;;;;;;5072682;28;20212;-65
2023/01/20 05:04:57;;;;;;;38.42;21.17;;;;;;;;;;5080302;28;20197;-65
2023/01/20 05:07:25;;;;;;;44.92;21.33;;;;;;;;;;5092346;28;20220;-66
2023/01/20 05:09:52;;;;;;;38.38;19.58;;;;;;;;;;5092618;28;20199;-66
2023/01/20 05:12:19;;;;;;;42.28;21.30;;;;;;;;;;5092832;28;20232;-65
2023/01/20 05:14:46;;;;;;;35.97;20.63;;;;;;;;;;5093350;28;20200;-66
2023/01/20 05:17:14;;;;;;;49.97;24.55;;;;;;;;;;5093332;28;20195;-65
2023/01/20 05:19:42;;;;;;;49.28;24.63;;;;;;;;;;5093666;28;20196;-65
2023/01/20 05:22:10;;;;;;;33.58;21.40;;;;;;;;;;5093631;28;20200;-65
2023/01/20 05:24:37;;;;;;;44.30;23.45;;;;;;;;;;5093087;28;20200;-65
2023/01/20 05:27:04;;;;;;;48.58;24.75;;;;;;;;;;5093210;28;20241;-65
2023/01/20 05:29:31;;;;;;;40.28;24.60;;;;;;;;;;5092851;28;20201;-65
2023/01/20 05:31:58;;;;;;;50.42;26.15;;;;;;;;;;5092796;28;20652;-65
2023/01/20 05:34:25;;;;;;;48.95;27.88;;;;;;;;;;5092818;28;20210;-65
2023/01/20 05:36:54;;;;;;;46.25;25.23;;;;;;;;;;5093213;28;20200;-65
2023/01/20 05:39:22;;;;;;;47.40;25.90;;;;;;;;;;5093079;28;20648;-65
2023/01/20 05:41:49;;;;;;;49.13;27.25;;;;;;;;;;5093611;28;20199;-65
2023/01/20 05:44:16;;;;;;;43.58;25.55;;;;;;;;;;5093379;28;20641;-65
2023/01/20 05:46:44;;;;;;;47.47;25.42;;;;;;;;;;5093095;28;20222;-65
2023/01/20 05:49:11;;;;;;;46.80;25.83;;;;;;;;;;5092684;28;20219;-66
2023/01/20 05:51:39;;;;;;;51.20;22.02;;;;;;;;;;5092856;28;20240;-65
2023/01/20 05:54:07;;;;;;;41.75;21.35;;;;;;;;;;5092606;28;20192;-65
2023/01/20 05:56:34;;;;;;;42.65;22.05;;;;;;;;;;5093140;28;20193;-65
2023/01/20 05:59:01;;;;;;;40.15;21.95;;;;;;;;;;5093153;28;20210;-65
2023/01/20 06:01:29;;;;;;;33.65;18.75;;;;;;;;;;5092655;28;20205;-65
2023/01/20 06:03:56;;;;;;;40.72;20.35;;;;;;;;;;5093141;28;20207;-65
2023/01/20 06:06:23;;;;;;;42.45;19.80;;;;;;;;;;5093200;28;20656;-66
2023/01/20 06:08:52;;;;;;;35.05;17.52;;;;;;;;;;5093088;28;20570;-68
2023/01/20 06:11:21;;;;;;;31.58;17.13;;;;;;;;;;5092693;28;20224;-66
2023/01/20 06:13:48;;;;;;;24.63;13.27;;;;;;;;;;5092842;28;20611;-64
2023/01/20 06:16:16;;;;;;;29.98;16.08;;;;;;;;;;5093148;28;20190;-63
2023/01/20 06:18:44;;;;;;;35.30;18.50;;;;;;;;;;5093588;28;20207;-63
2023/01/20 06:21:11;;;;;;;28.88;17.55;;;;;;;;;;5093150;28;20202;-63
2023/01/20 06:23:38;;;;;;;34.38;17.58;;;;;;;;;;5092797;28;20195;-63
2023/01/20 06:26:06;;;;;;;32.58;16.83;;;;;;;;;;5092962;28;20205;-63
2023/01/20 06:28:35;;;;;;;34.22;18.67;;;;;;;;;;5092520;28;20220;-63
2023/01/20 06:31:03;;;;;;;32.75;17.05;;;;;;;;;;5092908;28;20280;-64
2023/01/20 06:33:30;;;;;;;47.50;20.98;;;;;;;;;;5093584;28;20194;-64
2023/01/20 06:35:57;;;;;;;31.67;17.77;;;;;;;;;;5093020;28;20201;-64
2023/01/20 06:38:25;;;;;;;35.42;19.00;;;;;;;;;;5092676;28;20229;-64
2023/01/20 06:40:56;;;;;;;36.58;19.55;;;;;;;;;;5093022;28;20202;-63
2023/01/20 06:43:24;;;;;;;43.58;21.70;;;;;;;;;;5093006;28;20182;-64
2023/01/20 06:45:53;;;;;;;45.65;24.95;;;;;;;;;;5096625;28;20248;-64
2023/01/20 06:48:20;;;;;;;42.72;23.08;;;;;;;;;;5096129;28;20221;-64
2023/01/20 06:50:47;;;;;;;41.75;22.98;;;;;;;;;;5096616;28;20258;-64
2023/01/20 06:53:14;;;;;;;38.72;20.23;;;;;;;;;;5096339;28;20202;-64
2023/01/20 06:55:42;;;;;;;47.63;24.33;;;;;;;;;;5095923;28;20246;-64
2023/01/20 06:58:09;;;;;;;46.38;23.10;;;;;;;;;;5095973;28;20205;-64
2023/01/20 07:00:36;;;;;;;44.45;25.42;;;;;;;;;;5095836;28;20206;-64
2023/01/20 07:03:04;;;;;;;44.90;24.67;;;;;;;;;;5095757;28;20679;-64
2023/01/20 07:05:32;;;;;;;46.90;24.00;;;;;;;;;;5096032;28;20195;-64
2023/01/20 07:07:59;;;;;;;46.25;23.73;;;;;;;;;;5096038;28;20219;-64
2023/01/20 07:10:26;;;;;;;40.28;21.73;;;;;;;;;;5096206;28;20198;-64
2023/01/20 07:12:53;;;;;;;38.33;22.75;;;;;;;;;;5096294;28;20239;-64
2023/01/20 07:15:20;;;;;;;43.25;21.20;;;;;;;;;;5095481;28;20200;-64
2023/01/20 07:17:48;;;;;;;36.88;20.08;;;;;;;;;;5095675;28;20653;-64
2023/01/20 07:20:16;;;;;;;42.63;22.65;;;;;;;;;;5095458;28;20204;-64
2023/01/20 07:22:44;;;;;;;38.80;23.13;;;;;;;;;;5095781;28;20199;-64
2023/01/20 07:25:11;;;;;;;41.25;21.77;;;;;;;;;;5095623;28;20202;-64
2023/01/20 07:27:38;;;;;;;41.03;25.27;;;;;;;;;;5095603;28;20191;-64
2023/01/20 07:30:06;;;;;;;37.97;21.10;;;;;;;;;;5095231;28;20204;-64
2023/01/20 07:32:33;;;;;;;40.78;21.08;;;;;;;;;;5095996;28;20207;-65
2023/01/20 07:35:00;;;;;;;40.67;22.17;;;;;;;;;;5095842;28;20194;-65
2023/01/20 07:37:28;;;;;;;35.15;20.20;;;;;;;;;;5095927;28;20192;-64
2023/01/20 07:39:56;;;;;;;47.55;23.58;;;;;;;;;;5095078;28;20663;-65
2023/01/20 07:42:23;;;;;;;39.38;22.48;;;;;;;;;;5095730;28;20207;-65
2023/01/20 07:44:50;;;;;;;51.03;22.55;;;;;;;;;;5095323;28;20200;-65
2023/01/20 07:47:17;;;;;;;43.35;23.88;;;;;;;;;;5095299;28;20196;-65
2023/01/20 07:49:44;;;;;;;43.28;23.85;;;;;;;;;;5095306;28;20231;-64
2023/01/20 07:52:11;;;;;;;46.30;25.92;;;;;;;;;;5095148;28;20196;-64
2023/01/20 07:54:40;;;;;;;42.67;25.50;;;;;;;;;;5094790;28;20203;-64
2023/01/20 07:57:08;;;;;;;41.15;22.02;;;;;;;;;;5094960;28;20191;-64
2023/01/20 07:59:35;;;;;;;53.20;26.15;;;;;;;;;;5095068;28;20200;-64
2023/01/20 08:02:02;;;;;;;48.30;26.85;;;;;;;;;;5094492;28;20195;-64
2023/01/20 08:04:29;;;;;;;48.40;25.08;;;;;;;;;;5095146;28;20191;-64
2023/01/20 08:06:57;;;;;;;43.90;25.13;;;;;;;;;;5094803;28;20198;-64
2023/01/20 08:09:24;;;;;;;51.85;26.30;;;;;;;;;;5094705;28;20220;-64
2023/01/20 08:11:52;;;;;;;61.47;28.73;;;;;;;;;;5094544;28;20238;-64
2023/01/20 08:14:19;;;;;;;47.30;26.88;;;;;;;;;;5094839;28;20660;-64
2023/01/20 08:16:47;;;;;;;47.83;27.98;;;;;;;;;;5094505;28;20294;-64
2023/01/20 08:19:14;;;;;;;56.47;27.70;;;;;;;;;;5095341;28;20202;-64
2023/01/20 08:21:41;;;;;;;50.90;28.00;;;;;;;;;;5094140;28;20195;-65
2023/01/20 08:24:10;;;;;;;53.17;29.42;;;;;;;;;;5094562;28;20223;-65
2023/01/20 08:26:37;;;;;;;44.08;27.00;;;;;;;;;;5094342;28;20195;-65
2023/01/20 08:29:07;;;;;;;52.53;27.92;;;;;;;;;;5094094;28;20229;-65
2023/01/20 08:31:34;;;;;;;51.15;25.15;;;;;;;;;;5094016;28;20202;-64
2023/01/20 08:34:01;;;;;;;45.55;27.63;;;;;;;;;;5094431;28;20575;-64
2023/01/20 08:36:29;;;;;;;52.15;27.00;;;;;;;;;;5094084;28;20200;-64
2023/01/20 08:38:57;;;;;;;46.60;26.45;;;;;;;;;;5094606;28;20203;-64
2023/01/20 08:41:25;;;;;;;41.85;23.95;;;;;;;;;;5093923;28;20563;-64
2023/01/20 08:43:53;;;;;;;42.83;25.15;;;;;;;;;;5094250;28;20201;-64
2023/01/20 08:46:22;;;;;;;43.28;24.50;;;;;;;;;;5094162;28;20189;-64
2023/01/20 08:48:50;;;;;;;44.42;24.42;;;;;;;;;;5094141;28;20643;-64
2023/01/20 08:51:18;;;;;;;43.65;24.67;;;;;;;;;;5093815;28;20541;-64
2023/01/20 08:53:46;;;;;;;43.25;22.92;;;;;;;;;;5094079;28;20201;-64
2023/01/20 08:56:13;;;;;;;40.25;22.52;;;;;;;;;;5093981;28;20192;-64
2023/01/20 08:58:41;;;;;;;39.40;22.90;;;;;;;;;;5094037;28;20211;-64
2023/01/20 09:01:09;;;;;;;43.33;23.33;;;;;;;;;;5094341;28;20625;-65
2023/01/20 09:03:38;;;;;;;46.00;24.10;;;;;;;;;;5093005;28;20195;-64
2023/01/20 09:06:06;;;;;;;46.80;23.95;;;;;;;;;;5093243;28;20190;-65
2023/01/20 09:08:34;;;;;;;40.65;22.80;;;;;;;;;;5093393;28;20302;-65
2023/01/20 09:11:05;;;;;;;42.42;22.23;;;;;;;;;;5093588;28;20332;-65
2023/01/20 09:13:32;;;;;;;32.88;20.17;;;;;;;;;;5093683;28;20666;-64
2023/01/20 09:15:59;;;;;;;35.05;21.02;;;;;;;;;;5093706;28;20342;-64
2023/01/20 09:18:27;;;;;;;33.85;21.17;;;;;;;;;;5093305;28;20211;-64
2023/01/20 09:21:05;;;;;;;40.80;23.38;;;;;;;;;;5093722;28;20296;-65
2023/01/20 09:23:35;;;;;;;32.17;20.40;;;;;;;;;;5093698;28;20548;-65
2023/01/20 09:26:07;;;;;;;38.17;20.58;;;;;;;;;;5093343;28;20284;-64
2023/01/20 09:28:34;;;;;;;40.72;20.40;;;;;;;;;;5093207;28;20216;-64
2023/01/20 09:31:02;;;;;;;37.85;21.70;;;;;;;;;;5093714;28;20197;-65
2023/01/20 09:33:30;;;;;;;37.63;21.05;;;;;;;;;;5093166;28;20203;-64
2023/01/20 09:35:57;;;;;;;41.45;23.08;;;;;;;;;;5093515;28;20192;-65
2023/01/20 09:44:03;;;;;;;34.67;19.25;;;;;;;;;;5093322;28;20183;-65
2023/01/20 09:46:35;;;;;;;39.47;22.02;;;;;;;;;;5093986;28;20202;-65
2023/01/20 09:54:45;;;;;;;34.30;18.88;;;;;;;;;;5093153;28;20194;-64
2023/01/20 09:57:14;;;;;;;32.58;19.05;;;;;;;;;;5093011;28;20189;-64
2023/01/20 09:59:45;;;;;;;31.65;19.55;;;;;;;;;;5093334;28;20200;-65
2023/01/20 10:02:15;;;;;;;37.33;20.08;;;;;;;;;;5093505;28;20274;-64
2023/01/20 10:04:46;;;;;;;32.72;19.00;;;;;;;;;;5093327;28;20179;-64
2023/01/20 10:07:16;;;;;;;32.97;19.17;;;;;;;;;;5093494;28;20645;-64
2023/01/20 10:09:46;;;;;;;31.63;19.23;;;;;;;;;;5093381;28;20207;-64
2023/01/20 10:12:15;;;;;;;32.20;18.13;;;;;;;;;;5093292;28;20231;-65
2023/01/20 10:14:44;;;;;;;31.70;17.70;;;;;;;;;;5093188;28;20193;-64
2023/01/20 10:17:14;;;;;;;29.27;18.33;;;;;;;;;;5093121;28;20227;-65
2023/01/20 10:19:44;;;;;;;27.63;17.85;;;;;;;;;;5097296;28;20203;-65
2023/01/20 10:22:13;;;;;;;27.42;17.58;;;;;;;;;;5096861;28;20196;-65
2023/01/20 10:24:46;;;;;;;27.20;16.50;;;;;;;;;;5096526;28;20568;-64
2023/01/20 10:27:14;;;;;;;28.15;18.00;;;;;;;;;;5097569;28;20316;-65
2023/01/20 10:29:44;;;;;;;26.40;16.90;;;;;;;;;;5096437;28;20688;-64
2023/01/20 10:32:14;;;;;;;22.17;15.00;;;;;;;;;;5097025;28;20222;-65
2023/01/20 10:34:45;;;;;;;23.95;15.90;;;;;;;;;;5097276;28;20648;-64
2023/01/20 10:37:14;;;;;;;18.65;14.98;;;;;;;;;;5096812;28;20192;-65
2023/01/20 10:39:43;;;;;;;22.80;15.02;;;;;;;;;;5096812;28;20200;-64
2023/01/20 10:42:13;;;;;;;24.13;15.18;;;;;;;;;;5096292;28;20297;-66
2023/01/20 10:44:41;;;;;;;24.45;14.75;;;;;;;;;;5096691;28;20219;-64
2023/01/20 10:47:34;;;;;;;20.88;15.55;;;;;;;;;;5096229;28;20195;-65
2023/01/20 10:50:16;;;;;;;23.88;16.50;;;;;;;;;;5096579;28;20213;-64
2023/01/20 10:53:04;;;;;;;22.17;15.52;;;;;;;;;;5096408;28;20245;-65
2023/01/20 10:55:38;;;;;;;25.92;15.25;;;;;;;;;;5091541;28;20700;-64
2023/01/20 10:58:10;;;;;;;19.08;13.73;;;;;;;;;;5096302;28;20192;-64
2023/01/20 11:00:40;;;;;;;22.65;15.05;;;;;;;;;;5096692;28;20193;-64
2023/01/20 11:03:09;;;;;;;23.42;13.52;;;;;;;;;;5096536;28;20188;-64
2023/01/20 11:05:40;;;;;;;24.65;16.15;;;;;;;;;;5095810;28;20714;-64
2023/01/20 11:08:10;;;;;;;19.10;13.52;;;;;;;;;;5095781;28;20230;-64
2023/01/20 11:10:38;;;;;;;23.42;14.80;;;;;;;;;;5096513;28;20229;-65
2023/01/20 11:13:05;;;;;;;20.98;14.52;;;;;;;;;;5096230;28;20332;-65
2023/01/20 11:15:34;;;;;;;20.02;14.68;;;;;;;;;;5096274;28;20203;-64
2023/01/20 11:18:22;;;;;;;20.50;14.50;;;;;;;;;;5095446;28;20199;-64
2023/01/20 11:20:50;;;;;;;23.67;16.92;;;;;;;;;;5095840;28;20211;-64
2023/01/20 11:23:22;;;;;;;21.73;14.27;;;;;;;;;;5095714;28;20198;-65
2023/01/20 11:25:57;;;;;;;21.05;15.73;;;;;;;;;;5096242;28;20291;-65
2023/01/20 11:28:24;;;;;;;21.85;15.55;;;;;;;;;;5095706;28;20194;-65
2023/01/20 11:30:52;;;;;;;21.20;14.90;;;;;;;;;;5094795;28;20220;-65
2023/01/20 11:33:20;;;;;;;21.63;14.63;;;;;;;;;;5095456;28;20203;-65
2023/01/20 11:36:03;;;;;;;19.85;14.70;;;;;;;;;;5095888;28;20192;-65
2023/01/20 11:38:31;;;;;;;20.15;14.35;;;;;;;;;;5095292;28;20192;-65
2023/01/20 11:40:59;;;;;;;21.33;15.65;;;;;;;;;;5095356;28;20648;-64
2023/01/20 11:43:30;;;;;;;25.13;16.75;;;;;;;;;;5095023;28;20205;-65
2023/01/20 11:46:10;;;;;;;22.35;16.17;;;;;;;;;;5095332;28;20230;-64
2023/01/20 11:48:37;;;;;;;20.88;16.00;;;;;;;;;;5094942;28;20187;-64
2023/01/20 11:51:18;;;;;;;28.05;16.67;;;;;;;;;;5095138;28;20315;-65
2023/01/20 11:53:46;;;;;;;21.52;15.48;;;;;;;;;;5095358;28;20182;-65
2023/01/20 11:56:17;;;;;;;22.48;15.98;;;;;;;;;;5095130;28;20273;-64
2023/01/20 11:58:56;;;;;;;23.65;14.95;;;;;;;;;;5094662;28;20601;-64
2023/01/20 12:01:24;;;;;;;28.55;16.35;;;;;;;;;;5095241;28;20187;-64
2023/01/20 12:04:15;;;;;;;21.48;14.20;;;;;;;;;;5094634;28;20198;-64
2023/01/20 12:06:51;;;;;;;22.77;15.65;;;;;;;;;;5094989;28;20191;-65
2023/01/20 12:09:21;;;;;;;27.27;15.52;;;;;;;;;;5094501;28;20212;-65
2023/01/20 12:11:52;;;;;;;21.40;15.57;;;;;;;;;;5094720;28;20229;-64
2023/01/20 12:14:22;;;;;;;21.58;16.50;;;;;;;;;;5094828;28;20188;-64
2023/01/20 12:16:54;;;;;;;29.83;16.55;;;;;;;;;;5094494;28;20208;-64
2023/01/20 12:19:26;;;;;;;22.52;15.48;;;;;;;;;;5094381;28;20279;-65
2023/01/20 12:21:56;;;;;;;23.67;17.40;;;;;;;;;;5094448;28;20184;-65
2023/01/20 12:24:26;;;;;;;27.60;17.08;;;;;;;;;;5094956;28;20194;-64
2023/01/20 12:26:54;;;;;;;19.38;14.98;;;;;;;;;;5094872;28;20534;-64
2023/01/20 12:29:24;;;;;;;28.50;16.92;;;;;;;;;;5094742;28;20226;-64
2023/01/20 12:31:53;;;;;;;26.00;17.45;;;;;;;;;;5094903;28;20615;-64
2023/01/20 12:34:25;;;;;;;24.77;14.85;;;;;;;;;;5094385;28;20298;-65
2023/01/20 12:37:05;;;;;;;22.33;16.48;;;;;;;;;;5094183;28;20699;-65
2023/01/20 12:39:39;;;;;;;25.13;16.20;;;;;;;;;;5094534;28;20187;-64
2023/01/20 12:42:15;;;;;;;26.60;16.50;;;;;;;;;;5092920;28;20646;-65
2023/01/20 12:44:46;;;;;;;25.35;16.63;;;;;;;;;;5094509;28;20590;-64
2023/01/20 12:47:20;;;;;;;30.65;17.20;;;;;;;;;;5093932;28;20179;-65
2023/01/20 12:49:55;;;;;;;27.00;16.40;;;;;;;;;;5093794;28;20203;-65
2023/01/20 12:52:31;;;;;;;22.00;14.30;;;;;;;;;;5093886;28;20273;-64
2023/01/20 12:55:13;;;;;;;26.20;16.40;;;;;;;;;;5093736;28;20182;-64
2023/01/20 12:57:48;;;;;;;22.15;15.35;;;;;;;;;;5094331;28;20191;-65
2023/01/20 13:00:32;;;;;;;22.95;16.42;;;;;;;;;;5094321;28;20277;-64
2023/01/20 13:03:10;;;;;;;25.85;17.52;;;;;;;;;;5094234;28;20186;-64
2023/01/20 13:05:47;;;;;;;22.90;15.77;;;;;;;;;;5094073;28;20206;-64
2023/01/20 13:08:21;;;;;;;26.40;17.08;;;;;;;;;;5094015;28;20192;-64
2023/01/20 13:10:55;;;;;;;23.85;16.10;;;;;;;;;;5093608;28;20579;-65
2023/01/20 13:13:32;;;;;;;25.80;16.75;;;;;;;;;;5094271;28;20611;-64
2023/01/20 13:16:00;;;;;;;23.48;15.73;;;;;;;;;;5093886;28;20552;-64
2023/01/20 13:18:30;;;;;;;23.23;15.77;;;;;;;;;;5093414;28;20199;-65
2023/01/20 13:20:57;;;;;;;24.90;16.55;;;;;;;;;;5093714;28;20554;-64
2023/01/20 13:23:28;;;;;;;25.15;17.00;;;;;;;;;;5093721;28;20195;-65
2023/01/20 13:25:56;;;;;;;19.38;16.17;;;;;;;;;;5093797;28;20191;-65
2023/01/20 13:28:24;;;;;;;25.52;16.23;;;;;;;;;;5093289;28;20692;-65
2023/01/20 13:30:53;;;;;;;26.08;17.33;;;;;;;;;;5093156;28;20221;-64
2023/01/20 13:33:33;;;;;;;23.13;15.45;;;;;;;;;;5093613;28;20196;-65
2023/01/20 13:36:01;;;;;;;24.08;17.17;;;;;;;;;;5093564;28;20559;-64
2023/01/20 13:38:34;;;;;;;25.30;17.98;;;;;;;;;;5094129;28;20191;-65
2023/01/20 13:41:04;;;;;;;25.38;16.58;;;;;;;;;;5093116;28;20198;-64
2023/01/20 13:43:59;;;;;;;28.55;20.20;;;;;;;;;;5093910;28;20180;-65
2023/01/20 13:46:45;;;;;;;25.33;17.42;;;;;;;;;;5093218;28;20188;-65
2023/01/20 13:49:13;;;;;;;26.48;17.60;;;;;;;;;;5093932;28;20187;-65
2023/01/20 13:51:45;;;;;;;31.40;16.05;;;;;;;;;;5093173;28;20250;-64
2023/01/20 13:54:34;;;;;;;26.40;17.20;;;;;;;;;;5097004;28;20212;-68
2023/01/20 13:57:34;;;;;;;28.30;17.13;;;;;;;;;;5097488;28;20241;-66
2023/01/20 14:00:03;;;;;;;27.92;17.25;;;;;;;;;;5035347;28;20216;-66
2023/01/20 14:02:36;;;;;;;29.17;17.00;;;;;;;;;;5034931;28;20237;-65
2023/01/20 14:05:04;;;;;;;25.63;15.98;;;;;;;;;;5065493;28;20600;-66
2023/01/20 14:07:32;;;;;;;26.85;16.80;;;;;;;;;;5097246;28;20574;-66
2023/01/20 14:10:00;;;;;;;27.67;15.73;;;;;;;;;;5097915;28;20221;-67
2023/01/20 14:12:28;;;;;;;24.67;15.00;;;;;;;;;;5097215;28;20587;-66
2023/01/20 14:14:55;;;;;;;17.63;12.57;;;;;;;;;;5096906;28;20210;-66
2023/01/20 14:17:24;;;;;;;17.83;11.07;;;;;;;;;;5096714;28;20194;-66
2023/01/20 14:19:53;;;;;;;21.83;12.30;;;;;;;;;;5086683;28;20456;-66
2023/01/20 14:22:23;;;;;;;17.25;12.05;;;;;;;;;;5076008;28;20196;-70
2023/01/20 14:24:52;;;;;;;18.80;11.48;;;;;;;;;;5055535;28;20192;-66
2023/01/20 14:27:20;;;;;;;16.48;11.55;;;;;;;;;;5055196;28;20254;-66
2023/01/20 14:29:49;;;;;;;16.35;11.90;;;;;;;;;;5055318;28;20195;-67
2023/01/20 14:32:19;;;;;;;19.50;12.88;;;;;;;;;;5055461;28;20675;-66
2023/01/20 14:34:48;;;;;;;23.60;14.75;;;;;;;;;;5055746;28;20196;-66
2023/01/20 14:37:21;;;;;;;29.38;14.82;;;;;;;;;;5056128;28;20290;-66
2023/01/20 14:39:50;;;;;;;27.63;15.80;;;;;;;;;;5055514;28;20239;-66
2023/01/20 14:42:19;;;;;;;23.15;15.90;;;;;;;;;;5056354;28;20665;-66